createdAt,value
2018-07-30T00:00:02.146Z,0.00
2018-07-30T00:01:55.601Z,0.00
2018-07-30T00:02:55.610Z,0.00
2018-07-30T00:04:49.046Z,0.00
2018-07-30T00:05:49.074Z,0.00
2018-07-30T00:07:42.120Z,0.00
2018-07-30T00:08:42.133Z,0.00
2018-07-30T00:10:36.611Z,0.00
2018-07-30T00:11:36.623Z,0.00
2018-07-30T00:13:29.649Z,0.00
2018-07-30T00:14:29.680Z,0.00
2018-07-30T00:16:22.730Z,0.00
2018-07-30T00:17:22.734Z,0.00
2018-07-30T00:19:15.775Z,0.00
2018-07-30T00:20:15.807Z,0.00
2018-07-30T00:22:08.838Z,0.00
2018-07-30T00:23:08.848Z,0.00
2018-07-30T00:25:01.874Z,0.00
2018-07-30T00:26:01.903Z,0.00
2018-07-30T00:27:54.952Z,0.00
2018-07-30T00:28:54.963Z,0.00
2018-07-30T00:30:48.005Z,0.00
2018-07-30T00:31:48.016Z,0.00
2018-07-30T00:33:41.045Z,0.00
2018-07-30T00:34:41.071Z,0.00
2018-07-30T00:36:34.119Z,0.00
2018-07-30T00:37:34.127Z,0.00
2018-07-30T00:39:27.153Z,0.00
2018-07-30T00:40:27.184Z,0.00
2018-07-30T00:42:20.231Z,0.00
2018-07-30T00:43:20.242Z,0.00
2018-07-30T00:45:13.266Z,0.00
2018-07-30T00:46:13.298Z,0.00
2018-07-30T00:48:06.375Z,0.00
2018-07-30T00:49:06.354Z,0.00
2018-07-30T00:50:59.398Z,0.00
2018-07-30T00:51:59.411Z,0.00
2018-07-30T00:53:52.435Z,0.00
2018-07-30T00:54:52.476Z,0.00
2018-07-30T00:56:45.517Z,0.00
2018-07-30T00:57:45.522Z,0.00
2018-07-30T00:59:38.550Z,0.00
2018-07-30T01:00:38.580Z,0.00
2018-07-30T01:02:31.625Z,0.00
2018-07-30T01:03:31.710Z,0.00
2018-07-30T01:05:24.661Z,0.00
2018-07-30T01:06:24.690Z,0.00
2018-07-30T01:08:18.147Z,0.00
2018-07-30T01:09:18.171Z,0.00
2018-07-30T01:11:11.203Z,0.00
2018-07-30T01:12:11.227Z,0.00
2018-07-30T01:14:04.241Z,0.00
2018-07-30T01:15:04.270Z,0.00
2018-07-30T01:16:57.315Z,0.00
2018-07-30T01:17:57.329Z,0.00
2018-07-30T01:19:50.357Z,0.00
2018-07-30T01:20:50.382Z,0.00
2018-07-30T01:22:43.428Z,0.00
2018-07-30T01:23:43.438Z,0.00
2018-07-30T01:25:36.465Z,0.00
2018-07-30T01:26:36.493Z,0.00
2018-07-30T01:28:29.539Z,0.00
2018-07-30T01:29:29.550Z,0.00
2018-07-30T01:31:22.596Z,0.00
2018-07-30T01:32:22.606Z,0.00
2018-07-30T01:34:16.052Z,0.00
2018-07-30T01:35:15.668Z,0.00
2018-07-30T01:37:08.707Z,0.00
2018-07-30T01:38:08.719Z,0.00
2018-07-30T01:40:01.648Z,0.00
2018-07-30T01:41:01.683Z,0.00
2018-07-30T01:42:54.720Z,0.00
2018-07-30T01:43:54.729Z,0.00
2018-07-30T01:45:47.757Z,0.00
2018-07-30T01:46:47.816Z,0.00
2018-07-30T01:48:41.241Z,0.00
2018-07-30T01:49:41.249Z,0.00
2018-07-30T01:51:34.296Z,0.00
2018-07-30T01:52:34.306Z,0.00
2018-07-30T01:54:27.420Z,0.00
2018-07-30T01:55:27.527Z,0.00
2018-07-30T01:57:20.525Z,0.00
2018-07-30T01:58:20.537Z,0.00
2018-07-30T02:00:13.550Z,0.00
2018-07-30T02:01:13.596Z,0.00
2018-07-30T02:03:06.627Z,0.00
2018-07-30T02:04:06.635Z,0.00
2018-07-30T02:05:59.665Z,0.00
2018-07-30T02:06:59.693Z,0.00
2018-07-30T02:08:52.737Z,0.00
2018-07-30T02:09:52.750Z,0.00
2018-07-30T02:11:46.208Z,0.00
2018-07-30T02:12:46.214Z,0.00
2018-07-30T02:14:39.270Z,0.00
2018-07-30T02:15:39.304Z,0.00
2018-07-30T02:17:39.795Z,0.00
2018-07-30T02:18:39.806Z,0.00
2018-07-30T02:20:32.992Z,0.00
2018-07-30T02:21:33.092Z,0.00
2018-07-30T02:23:26.006Z,0.00
2018-07-30T02:24:26.021Z,0.00
2018-07-30T02:26:19.470Z,0.00
2018-07-30T02:27:20.338Z,0.00
2018-07-30T02:29:12.659Z,0.00
2018-07-30T02:30:12.540Z,0.00
2018-07-30T02:32:06.006Z,0.00
2018-07-30T02:33:06.006Z,0.00
2018-07-30T02:35:08.946Z,0.00
2018-07-30T02:36:08.969Z,0.00
2018-07-30T02:38:01.912Z,0.00
2018-07-30T02:39:01.922Z,0.00
2018-07-30T02:40:54.838Z,0.00
2018-07-30T02:41:54.869Z,0.00
2018-07-30T02:43:47.808Z,0.00
2018-07-30T02:44:47.822Z,0.00
2018-07-30T02:46:40.737Z,0.00
2018-07-30T02:47:40.765Z,0.00
2018-07-30T02:49:33.713Z,0.00
2018-07-30T02:50:33.716Z,0.00
2018-07-30T02:52:26.657Z,0.00
2018-07-30T02:53:26.666Z,0.00
2018-07-30T02:55:19.599Z,0.00
2018-07-30T02:56:19.618Z,0.00
2018-07-30T02:58:12.566Z,0.00
2018-07-30T02:59:12.571Z,0.00
2018-07-30T03:01:05.494Z,0.00
2018-07-30T03:02:05.524Z,0.00
2018-07-30T03:03:58.459Z,0.00
2018-07-30T03:04:58.469Z,0.00
2018-07-30T03:06:51.413Z,4.00
2018-07-30T03:07:51.414Z,4.00
2018-07-30T03:09:44.358Z,4.00
2018-07-30T03:10:44.362Z,4.00
2018-07-30T03:12:37.449Z,4.00
2018-07-30T03:13:37.457Z,4.00
2018-07-30T03:15:30.380Z,8.00
2018-07-30T03:16:30.407Z,8.00
2018-07-30T03:18:23.355Z,12.00
2018-07-30T03:19:23.355Z,12.00
2018-07-30T03:21:16.275Z,16.00
2018-07-30T03:22:16.304Z,20.00
2018-07-30T03:24:09.248Z,24.00
2018-07-30T03:25:09.252Z,24.00
2018-07-30T03:27:02.170Z,32.00
2018-07-30T03:28:02.200Z,36.00
2018-07-30T03:29:55.141Z,44.00
2018-07-30T03:30:55.145Z,48.00
2018-07-30T03:32:48.155Z,60.00
2018-07-30T03:33:48.091Z,64.00
2018-07-30T03:35:41.006Z,76.00
2018-07-30T03:36:41.036Z,84.00
2018-07-30T03:38:33.982Z,100.00
2018-07-30T03:39:33.985Z,104.00
2018-07-30T03:41:26.905Z,120.00
2018-07-30T03:42:26.933Z,132.00
2018-07-30T03:44:19.869Z,156.00
2018-07-30T03:45:19.880Z,172.00
2018-07-30T03:47:12.794Z,196.00
2018-07-30T03:48:12.826Z,212.00
2018-07-30T03:50:05.785Z,252.00
2018-07-30T03:51:05.771Z,272.00
2018-07-30T03:52:58.720Z,320.00
2018-07-30T03:53:58.723Z,356.00
2018-07-30T03:55:51.640Z,416.00
2018-07-30T03:56:51.673Z,448.00
2018-07-30T03:58:44.607Z,504.00
2018-07-30T03:59:44.616Z,528.00
2018-07-30T04:01:37.530Z,592.00
2018-07-30T04:02:37.556Z,640.00
2018-07-30T04:04:30.532Z,728.00
2018-07-30T04:05:30.506Z,832.00
2018-07-30T04:07:23.428Z,956.00
2018-07-30T04:08:23.457Z,1044.00
2018-07-30T04:10:16.395Z,1032.00
2018-07-30T04:11:16.405Z,1040.00
2018-07-30T04:13:09.341Z,1168.00
2018-07-30T04:14:09.351Z,1276.00
2018-07-30T04:16:02.266Z,1476.00
2018-07-30T04:17:02.297Z,1572.00
2018-07-30T04:18:55.233Z,1740.00
2018-07-30T04:19:55.245Z,1816.00
2018-07-30T04:21:48.162Z,2292.00
2018-07-30T04:22:48.190Z,2708.00
2018-07-30T04:24:41.128Z,2956.00
2018-07-30T04:25:41.140Z,3036.00
2018-07-30T04:27:34.053Z,3244.00
2018-07-30T04:28:34.083Z,3356.00
2018-07-30T04:30:27.019Z,3572.00
2018-07-30T04:31:27.039Z,3708.00
2018-07-30T04:33:19.977Z,3960.00
2018-07-30T04:34:19.976Z,4116.00
2018-07-30T04:36:12.897Z,4340.00
2018-07-30T04:37:12.924Z,4388.00
2018-07-30T04:39:05.868Z,2744.00
2018-07-30T04:40:05.876Z,2624.00
2018-07-30T04:41:58.797Z,4780.00
2018-07-30T04:42:58.827Z,5460.00
2018-07-30T04:44:51.770Z,5316.00
2018-07-30T04:45:51.778Z,6140.00
2018-07-30T04:47:44.701Z,7272.00
2018-07-30T04:48:44.729Z,7544.00
2018-07-30T04:50:37.671Z,6784.00
2018-07-30T04:51:37.680Z,7304.00
2018-07-30T04:53:30.610Z,8516.00
2018-07-30T04:54:30.635Z,9460.00
2018-07-30T04:56:23.581Z,7360.00
2018-07-30T04:57:23.589Z,8896.00
2018-07-30T04:59:16.543Z,8768.00
2018-07-30T05:00:16.548Z,8632.00
2018-07-30T05:02:09.476Z,8564.00
2018-07-30T05:03:09.507Z,7992.00
2018-07-30T05:05:02.475Z,5392.00
2018-07-30T05:06:02.465Z,4804.00
2018-07-30T05:07:55.395Z,5996.00
2018-07-30T05:08:55.425Z,6472.00
2018-07-30T05:10:48.378Z,6848.00
2018-07-30T05:11:48.383Z,9384.00
2018-07-30T05:13:41.311Z,4780.00
2018-07-30T05:14:41.341Z,5028.00
2018-07-30T05:16:34.287Z,5384.00
2018-07-30T05:17:34.299Z,5516.00
2018-07-30T05:19:27.319Z,5632.00
2018-07-30T05:20:27.253Z,5644.00
2018-07-30T05:22:20.181Z,5592.00
2018-07-30T05:23:20.211Z,5572.00
2018-07-30T05:25:13.164Z,5476.00
2018-07-30T05:26:13.166Z,5428.00
2018-07-30T05:28:06.091Z,5400.00
2018-07-30T05:29:06.120Z,5424.00
2018-07-30T05:30:59.066Z,5380.00
2018-07-30T05:31:59.076Z,5380.00
2018-07-30T05:33:51.995Z,5512.00
2018-07-30T05:34:52.028Z,5512.00
2018-07-30T05:36:44.982Z,5420.00
2018-07-30T05:37:44.985Z,5208.00
2018-07-30T05:39:37.932Z,5036.00
2018-07-30T05:40:37.940Z,5036.00
2018-07-30T05:42:30.867Z,5308.00
2018-07-30T05:43:30.893Z,5636.00
2018-07-30T05:45:23.840Z,6864.00
2018-07-30T05:46:23.849Z,6724.00
2018-07-30T05:48:16.774Z,8252.00
2018-07-30T05:49:16.801Z,11960.00
2018-07-30T05:51:09.743Z,19104.00
2018-07-30T05:52:09.754Z,19488.00
2018-07-30T05:54:02.682Z,20896.00
2018-07-30T05:55:02.709Z,21664.00
2018-07-30T05:56:55.652Z,20160.00
2018-07-30T05:57:55.663Z,22752.00
2018-07-30T05:59:48.642Z,22912.00
2018-07-30T06:00:48.620Z,23424.00
2018-07-30T06:02:41.576Z,24448.00
2018-07-30T06:03:41.588Z,24352.00
2018-07-30T06:05:34.560Z,11688.00
2018-07-30T06:06:34.550Z,9560.00
2018-07-30T06:08:27.480Z,17856.00
2018-07-30T06:09:27.513Z,9732.00
2018-07-30T06:11:20.471Z,10404.00
2018-07-30T06:12:20.475Z,7776.00
2018-07-30T06:14:13.420Z,17408.00
2018-07-30T06:15:13.445Z,20736.00
2018-07-30T06:17:06.397Z,16608.00
2018-07-30T06:18:06.409Z,18304.00
2018-07-30T06:19:59.336Z,24640.00
2018-07-30T06:20:59.401Z,23296.00
2018-07-30T06:22:52.320Z,25056.00
2018-07-30T06:23:52.333Z,25952.00
2018-07-30T06:25:45.359Z,26272.00
2018-07-30T06:26:45.299Z,26176.00
2018-07-30T06:28:38.233Z,26272.00
2018-07-30T06:29:38.265Z,27168.00
2018-07-30T06:31:31.228Z,27680.00
2018-07-30T06:32:31.238Z,27488.00
2018-07-30T06:34:24.174Z,27360.00
2018-07-30T06:35:24.212Z,28128.00
2018-07-30T06:37:17.171Z,28416.00
2018-07-30T06:38:17.228Z,28672.00
2018-07-30T06:40:10.125Z,29888.00
2018-07-30T06:41:10.160Z,30592.00
2018-07-30T06:43:03.120Z,32384.00
2018-07-30T06:44:03.131Z,33568.00
2018-07-30T06:45:56.066Z,33504.00
2018-07-30T06:46:56.101Z,32768.00
2018-07-30T06:48:49.061Z,33920.00
2018-07-30T06:49:49.072Z,34240.00
2018-07-30T06:51:42.043Z,33536.00
2018-07-30T06:52:42.047Z,33664.00
2018-07-30T06:54:35.157Z,34496.00
2018-07-30T06:55:35.187Z,34464.00
2018-07-30T06:57:28.154Z,35072.00
2018-07-30T06:58:28.172Z,35296.00
2018-07-30T07:00:21.111Z,36096.00
2018-07-30T07:01:21.146Z,36256.00
2018-07-30T07:03:14.163Z,37312.00
2018-07-30T07:04:14.134Z,39168.00
2018-07-30T07:06:07.067Z,39456.00
2018-07-30T07:07:07.103Z,39840.00
2018-07-30T07:09:00.064Z,40608.00
2018-07-30T07:10:00.163Z,39680.00
2018-07-30T07:11:53.039Z,40320.00
2018-07-30T07:12:53.058Z,40864.00
2018-07-30T07:14:46.024Z,41632.00
2018-07-30T07:15:46.042Z,43232.00
2018-07-30T07:17:39.006Z,42144.00
2018-07-30T07:18:39.022Z,35744.00
2018-07-30T07:20:31.964Z,8152.00
2018-07-30T07:21:32.047Z,7304.00
2018-07-30T07:23:24.965Z,8488.00
2018-07-30T07:24:24.980Z,9052.00
2018-07-30T07:26:17.921Z,9044.00
2018-07-30T07:27:17.960Z,8880.00
2018-07-30T07:29:10.918Z,8576.00
2018-07-30T07:30:10.934Z,8264.00
2018-07-30T07:32:03.894Z,7620.00
2018-07-30T07:33:03.927Z,7444.00
2018-07-30T07:34:56.902Z,6616.00
2018-07-30T07:35:56.902Z,6308.00
2018-07-30T07:37:49.866Z,6148.00
2018-07-30T07:38:49.935Z,5848.00
2018-07-30T07:40:42.806Z,5472.00
2018-07-30T07:41:42.835Z,5132.00
2018-07-30T07:43:35.795Z,4716.00
2018-07-30T07:44:35.801Z,4584.00
2018-07-30T07:46:28.733Z,4396.00
2018-07-30T07:47:28.765Z,4368.00
2018-07-30T07:49:21.722Z,4248.00
2018-07-30T07:50:22.008Z,4232.00
2018-07-30T07:52:14.664Z,4200.00
2018-07-30T07:53:14.698Z,4168.00
2018-07-30T07:55:07.651Z,4116.00
2018-07-30T07:56:07.663Z,4088.00
2018-07-30T07:58:00.590Z,4072.00
2018-07-30T07:59:00.628Z,4108.00
2018-07-30T08:00:53.583Z,4148.00
2018-07-30T08:01:53.583Z,4152.00
2018-07-30T08:03:46.535Z,4264.00
2018-07-30T08:04:46.545Z,4576.00
2018-07-30T08:06:39.501Z,4808.00
2018-07-30T08:07:39.509Z,5296.00
2018-07-30T08:09:32.457Z,5568.00
2018-07-30T08:10:32.462Z,5912.00
2018-07-30T08:12:25.397Z,6360.00
2018-07-30T08:13:25.423Z,6236.00
2018-07-30T08:15:18.379Z,6152.00
2018-07-30T08:16:18.418Z,6256.00
2018-07-30T08:18:11.316Z,6904.00
2018-07-30T08:19:11.347Z,7256.00
2018-07-30T08:21:04.302Z,7864.00
2018-07-30T08:22:04.313Z,8412.00
2018-07-30T08:23:57.246Z,9112.00
2018-07-30T08:24:57.276Z,9592.00
2018-07-30T08:26:50.232Z,10332.00
2018-07-30T08:27:50.239Z,10748.00
2018-07-30T08:29:43.202Z,11376.00
2018-07-30T08:30:43.200Z,11452.00
2018-07-30T08:32:36.134Z,12120.00
2018-07-30T08:33:36.165Z,12348.00
2018-07-30T08:35:29.113Z,12180.00
2018-07-30T08:36:29.125Z,11792.00
2018-07-30T08:38:22.053Z,12048.00
2018-07-30T08:39:22.087Z,12472.00
2018-07-30T08:41:15.036Z,13848.00
2018-07-30T08:42:15.097Z,14648.00
2018-07-30T08:44:07.983Z,14672.00
2018-07-30T08:45:08.014Z,14336.00
2018-07-30T08:47:00.971Z,13648.00
2018-07-30T08:48:00.976Z,13616.00
2018-07-30T08:49:53.940Z,14100.00
2018-07-30T08:50:53.942Z,14332.00
2018-07-30T08:52:46.876Z,14644.00
2018-07-30T08:53:46.908Z,14704.00
2018-07-30T08:55:39.867Z,14744.00
2018-07-30T08:56:39.876Z,14716.00
2018-07-30T08:58:32.811Z,14528.00
2018-07-30T08:59:32.841Z,14404.00
2018-07-30T09:01:25.798Z,13808.00
2018-07-30T09:02:25.806Z,13640.00
2018-07-30T09:04:18.742Z,13552.00
2018-07-30T09:05:18.782Z,13404.00
2018-07-30T09:07:11.784Z,13284.00
2018-07-30T09:08:11.743Z,13304.00
2018-07-30T09:10:04.674Z,13288.00
2018-07-30T09:11:04.710Z,13256.00
2018-07-30T09:12:57.752Z,13396.00
2018-07-30T09:13:57.678Z,13332.00
2018-07-30T09:15:50.644Z,13556.00
2018-07-30T09:16:50.645Z,13736.00
2018-07-30T09:18:43.579Z,13880.00
2018-07-30T09:19:43.612Z,13900.00
2018-07-30T09:21:36.571Z,13932.00
2018-07-30T09:22:36.585Z,14028.00
2018-07-30T09:24:29.514Z,14248.00
2018-07-30T09:25:29.549Z,14220.00
2018-07-30T09:27:22.507Z,13968.00
2018-07-30T09:28:22.519Z,13768.00
2018-07-30T09:30:15.452Z,13056.00
2018-07-30T09:31:15.484Z,12640.00
2018-07-30T09:33:08.541Z,12236.00
2018-07-30T09:34:08.451Z,12124.00
2018-07-30T09:36:01.393Z,11960.00
2018-07-30T09:37:01.425Z,11968.00
2018-07-30T09:38:54.382Z,11836.00
2018-07-30T09:39:54.390Z,11572.00
2018-07-30T09:41:47.350Z,11064.00
2018-07-30T09:42:47.362Z,10964.00
2018-07-30T09:44:40.382Z,10980.00
2018-07-30T09:45:40.328Z,11064.00
2018-07-30T09:47:33.289Z,11204.00
2018-07-30T09:48:33.297Z,11248.00
2018-07-30T09:50:26.241Z,11332.00
2018-07-30T09:51:26.261Z,11292.00
2018-07-30T09:53:19.220Z,11220.00
2018-07-30T09:54:19.231Z,11184.00
2018-07-30T09:56:12.181Z,11160.00
2018-07-30T09:57:12.203Z,11036.00
2018-07-30T09:59:05.161Z,10560.00
2018-07-30T10:00:05.173Z,10396.00
2018-07-30T10:01:58.128Z,10408.00
2018-07-30T10:02:58.139Z,10336.00
2018-07-30T10:04:51.073Z,9956.00
2018-07-30T10:05:51.105Z,9712.00
2018-07-30T10:07:44.065Z,9192.00
2018-07-30T10:08:44.081Z,8664.00
2018-07-30T10:10:37.014Z,8208.00
2018-07-30T10:11:37.060Z,8072.00
2018-07-30T10:13:30.007Z,8236.00
2018-07-30T10:14:30.020Z,7764.00
2018-07-30T10:16:22.954Z,6124.00
2018-07-30T10:17:22.992Z,5984.00
2018-07-30T10:19:15.940Z,5908.00
2018-07-30T10:20:15.948Z,5664.00
2018-07-30T10:22:08.917Z,5212.00
2018-07-30T10:23:08.919Z,4980.00
2018-07-30T10:25:01.876Z,4448.00
2018-07-30T10:26:01.884Z,4004.00
2018-07-30T10:27:54.842Z,3892.00
2018-07-30T10:28:54.846Z,3828.00
2018-07-30T10:30:47.890Z,3532.00
2018-07-30T10:31:47.813Z,3532.00
2018-07-30T10:33:40.772Z,3464.00
2018-07-30T10:34:40.783Z,3596.00
2018-07-30T10:36:33.734Z,3396.00
2018-07-30T10:37:33.770Z,3412.00
2018-07-30T10:39:26.738Z,3712.00
2018-07-30T10:40:26.750Z,3720.00
2018-07-30T10:42:19.698Z,3744.00
2018-07-30T10:43:19.715Z,3620.00
2018-07-30T10:45:12.667Z,3548.00
2018-07-30T10:46:12.716Z,3588.00
2018-07-30T10:48:05.649Z,3748.00
2018-07-30T10:49:05.667Z,3924.00
2018-07-30T10:50:58.600Z,4192.00
2018-07-30T10:51:58.633Z,4728.00
2018-07-30T10:53:51.634Z,5528.00
2018-07-30T10:54:51.595Z,5756.00
2018-07-30T10:56:45.736Z,7288.00
2018-07-30T10:57:45.767Z,8152.00
2018-07-30T10:59:38.784Z,9076.00
2018-07-30T11:00:38.797Z,9432.00
2018-07-30T11:02:31.736Z,10272.00
2018-07-30T11:03:31.762Z,10948.00
2018-07-30T11:05:24.721Z,10748.00
2018-07-30T11:06:24.729Z,10388.00
2018-07-30T11:08:17.709Z,10224.00
2018-07-30T11:09:17.712Z,10572.00
2018-07-30T11:11:10.648Z,9096.00
2018-07-30T11:12:10.684Z,8384.00
2018-07-30T11:14:03.951Z,8712.00
2018-07-30T11:15:03.965Z,8844.00
2018-07-30T11:16:56.901Z,8052.00
2018-07-30T11:17:56.941Z,8168.00
2018-07-30T11:19:49.902Z,7868.00
2018-07-30T11:20:49.917Z,7032.00
2018-07-30T11:22:42.854Z,6264.00
2018-07-30T11:23:42.885Z,6168.00
2018-07-30T11:25:35.847Z,6352.00
2018-07-30T11:26:35.851Z,5936.00
2018-07-30T11:28:28.785Z,6076.00
2018-07-30T11:29:28.819Z,6484.00
2018-07-30T11:31:21.778Z,6700.00
2018-07-30T11:32:21.786Z,6448.00
2018-07-30T11:34:14.746Z,5856.00
2018-07-30T11:35:14.753Z,5556.00
2018-07-30T11:37:07.693Z,4980.00
2018-07-30T11:38:07.726Z,4844.00
2018-07-30T11:40:00.693Z,4688.00
2018-07-30T11:41:00.697Z,4668.00
2018-07-30T11:42:53.670Z,4428.00
2018-07-30T11:43:53.670Z,4012.00
2018-07-30T11:45:46.628Z,3712.00
2018-07-30T11:46:46.636Z,3668.00
2018-07-30T11:48:39.592Z,3668.00
2018-07-30T11:49:39.605Z,3688.00
2018-07-30T11:51:32.563Z,3776.00
2018-07-30T11:52:32.730Z,3796.00
2018-07-30T11:54:25.635Z,3768.00
2018-07-30T11:55:25.545Z,3720.00
2018-07-30T11:57:18.506Z,3712.00
2018-07-30T11:58:18.517Z,3800.00
2018-07-30T12:00:11.476Z,3860.00
2018-07-30T12:01:11.558Z,3960.00
2018-07-30T12:03:04.422Z,3940.00
2018-07-30T12:04:04.457Z,3884.00
2018-07-30T12:05:57.413Z,3544.00
2018-07-30T12:06:57.422Z,3444.00
2018-07-30T12:08:50.401Z,3724.00
2018-07-30T12:09:50.389Z,4328.00
2018-07-30T12:11:43.347Z,4868.00
2018-07-30T12:12:43.360Z,4772.00
2018-07-30T12:14:36.300Z,4524.00
2018-07-30T12:15:36.328Z,4608.00
2018-07-30T12:17:29.287Z,5480.00
2018-07-30T12:18:29.300Z,6224.00
2018-07-30T12:20:22.238Z,8080.00
2018-07-30T12:21:22.272Z,8104.00
2018-07-30T12:23:15.227Z,8112.00
2018-07-30T12:24:15.242Z,8360.00
2018-07-30T12:26:08.200Z,9372.00
2018-07-30T12:27:08.211Z,9960.00
2018-07-30T12:29:01.147Z,9276.00
2018-07-30T12:30:01.244Z,8992.00
2018-07-30T12:31:54.139Z,8052.00
2018-07-30T12:32:54.151Z,7840.00
2018-07-30T12:34:47.092Z,7520.00
2018-07-30T12:35:47.121Z,7572.00
2018-07-30T12:37:40.088Z,7612.00
2018-07-30T12:38:40.097Z,7436.00
2018-07-30T12:40:33.033Z,7488.00
2018-07-30T12:41:33.068Z,7432.00
2018-07-30T12:43:26.027Z,6744.00
2018-07-30T12:44:26.039Z,6696.00
2018-07-30T12:46:18.983Z,6644.00
2018-07-30T12:47:19.010Z,6388.00
2018-07-30T12:49:11.971Z,5880.00
2018-07-30T12:50:11.984Z,5460.00
2018-07-30T12:52:04.943Z,5640.00
2018-07-30T12:53:04.960Z,5544.00
2018-07-30T12:54:57.910Z,4756.00
2018-07-30T12:55:57.952Z,4364.00
2018-07-30T12:57:50.959Z,3904.00
2018-07-30T12:58:50.948Z,3908.00
2018-07-30T13:00:43.889Z,4212.00
2018-07-30T13:01:43.920Z,4372.00
2018-07-30T13:03:37.428Z,5768.00
2018-07-30T13:04:37.452Z,6400.00
2018-07-30T13:06:30.373Z,7644.00
2018-07-30T13:07:30.406Z,8256.00
2018-07-30T13:09:23.366Z,9152.00
2018-07-30T13:10:23.382Z,8976.00
2018-07-30T13:12:16.322Z,8756.00
2018-07-30T13:13:16.357Z,8008.00
2018-07-30T13:15:09.367Z,8240.00
2018-07-30T13:16:09.324Z,8264.00
2018-07-30T13:18:02.298Z,7856.00
2018-07-30T13:19:02.314Z,7764.00
2018-07-30T13:20:55.270Z,8460.00
2018-07-30T13:21:55.296Z,8496.00
2018-07-30T13:23:48.303Z,7532.00
2018-07-30T13:24:48.270Z,7176.00
2018-07-30T13:26:41.319Z,7656.00
2018-07-30T13:27:41.241Z,8024.00
2018-07-30T13:29:34.201Z,8100.00
2018-07-30T13:30:34.214Z,8188.00
2018-07-30T13:32:27.181Z,8320.00
2018-07-30T13:33:27.213Z,8176.00
2018-07-30T13:35:20.397Z,7576.00
2018-07-30T13:36:20.224Z,7292.00
2018-07-30T13:38:13.183Z,6860.00
2018-07-30T13:39:13.198Z,6472.00
2018-07-30T13:41:06.140Z,5996.00
2018-07-30T13:42:06.170Z,5808.00
2018-07-30T13:43:59.129Z,6936.00
2018-07-30T13:44:59.147Z,7180.00
2018-07-30T13:46:52.083Z,7656.00
2018-07-30T13:47:52.118Z,7640.00
2018-07-30T13:49:45.079Z,7636.00
2018-07-30T13:50:45.092Z,7552.00
2018-07-30T13:52:38.028Z,8172.00
2018-07-30T13:53:38.064Z,7632.00
2018-07-30T13:55:31.031Z,7032.00
2018-07-30T13:56:31.041Z,6992.00
2018-07-30T13:58:23.983Z,7216.00
2018-07-30T13:59:24.021Z,8076.00
2018-07-30T14:01:16.977Z,8092.00
2018-07-30T14:02:16.992Z,7904.00
2018-07-30T14:04:09.955Z,7416.00
2018-07-30T14:05:09.973Z,7316.00
2018-07-30T14:07:02.942Z,7704.00
2018-07-30T14:08:02.941Z,7360.00
2018-07-30T14:09:55.935Z,6804.00
2018-07-30T14:10:55.921Z,6856.00
2018-07-30T14:12:48.910Z,7776.00
2018-07-30T14:13:48.933Z,8196.00
2018-07-30T14:15:41.858Z,9152.00
2018-07-30T14:16:41.869Z,9092.00
2018-07-30T14:18:34.819Z,8520.00
2018-07-30T14:19:34.845Z,8552.00
2018-07-30T14:21:27.811Z,9504.00
2018-07-30T14:22:27.825Z,9512.00
2018-07-30T14:24:20.842Z,9888.00
2018-07-30T14:25:20.875Z,9968.00
2018-07-30T14:27:13.834Z,9592.00
2018-07-30T14:28:13.851Z,9340.00
2018-07-30T14:30:07.307Z,8784.00
2018-07-30T14:31:07.325Z,8220.00
2018-07-30T14:33:00.329Z,7896.00
2018-07-30T14:34:00.365Z,7656.00
2018-07-30T14:35:53.404Z,7148.00
2018-07-30T14:36:53.426Z,6732.00
2018-07-30T14:38:46.445Z,6444.00
2018-07-30T14:39:46.478Z,6052.00
2018-07-30T14:41:39.438Z,5556.00
2018-07-30T14:42:39.459Z,5576.00
2018-07-30T14:44:32.462Z,5952.00
2018-07-30T14:45:32.491Z,6324.00
2018-07-30T14:47:25.526Z,7108.00
2018-07-30T14:48:25.547Z,7460.00
2018-07-30T14:50:18.583Z,8032.00
2018-07-30T14:51:18.601Z,8368.00
2018-07-30T14:53:11.624Z,9400.00
2018-07-30T14:54:11.657Z,9824.00
2018-07-30T14:56:04.694Z,10256.00
2018-07-30T14:57:04.710Z,10280.00
2018-07-30T14:58:57.737Z,10372.00
2018-07-30T14:59:57.846Z,9976.00
2018-07-30T15:01:51.321Z,9484.00
2018-07-30T15:02:51.338Z,8876.00
2018-07-30T15:04:44.357Z,8188.00
2018-07-30T15:05:44.393Z,7868.00
2018-07-30T15:07:37.432Z,8012.00
2018-07-30T15:08:37.449Z,8348.00
2018-07-30T15:10:30.488Z,8148.00
2018-07-30T15:11:30.506Z,8204.00
2018-07-30T15:13:24.038Z,7940.00
2018-07-30T15:14:24.077Z,7796.00
2018-07-30T15:16:17.118Z,7832.00
2018-07-30T15:17:17.138Z,7824.00
2018-07-30T15:19:10.233Z,8076.00
2018-07-30T15:20:10.186Z,8024.00
2018-07-30T15:22:03.231Z,8044.00
2018-07-30T15:23:03.245Z,8064.00
2018-07-30T15:24:56.262Z,8140.00
2018-07-30T15:25:56.299Z,8000.00
2018-07-30T15:27:49.343Z,8072.00
2018-07-30T15:28:49.357Z,8220.00
2018-07-30T15:30:42.378Z,8464.00
2018-07-30T15:31:42.411Z,8508.00
2018-07-30T15:33:35.965Z,8452.00
2018-07-30T15:34:36.004Z,8532.00
2018-07-30T15:36:29.017Z,8724.00
2018-07-30T15:37:29.038Z,8800.00
2018-07-30T15:39:22.054Z,9052.00
2018-07-30T15:40:22.093Z,9128.00
2018-07-30T15:42:15.132Z,9384.00
2018-07-30T15:43:15.149Z,9728.00
2018-07-30T15:45:08.170Z,10096.00
2018-07-30T15:46:08.211Z,10156.00
2018-07-30T15:48:02.189Z,10448.00
2018-07-30T15:49:01.260Z,10808.00
2018-07-30T15:50:54.283Z,11368.00
2018-07-30T15:51:54.316Z,11328.00
2018-07-30T15:53:47.384Z,11000.00
2018-07-30T15:54:47.417Z,10752.00
2018-07-30T15:56:40.395Z,10444.00
2018-07-30T15:57:40.432Z,10176.00
2018-07-30T15:59:34.920Z,9756.00
2018-07-30T16:00:34.933Z,9444.00
2018-07-30T16:02:27.979Z,8880.00
2018-07-30T16:03:27.984Z,8600.00
2018-07-30T16:05:21.258Z,8236.00
2018-07-30T16:06:21.290Z,7964.00
2018-07-30T16:08:14.280Z,7268.00
2018-07-30T16:09:14.294Z,6760.00
2018-07-30T16:11:07.322Z,6160.00
2018-07-30T16:12:07.373Z,5956.00
2018-07-30T16:14:00.904Z,5772.00
2018-07-30T16:15:00.921Z,5976.00
2018-07-30T16:16:53.941Z,5716.00
2018-07-30T16:17:53.984Z,5396.00
2018-07-30T16:19:47.013Z,4928.00
2018-07-30T16:20:47.031Z,4780.00
2018-07-30T16:22:40.464Z,4612.00
2018-07-30T16:23:40.502Z,4580.00
2018-07-30T16:25:33.536Z,4472.00
2018-07-30T16:26:33.552Z,4592.00
2018-07-30T16:28:26.594Z,4520.00
2018-07-30T16:29:26.608Z,4376.00
2018-07-30T16:31:19.549Z,4608.00
2018-07-30T16:32:19.583Z,4756.00
2018-07-30T16:34:12.605Z,4696.00
2018-07-30T16:35:12.626Z,4616.00
2018-07-30T16:37:05.643Z,4472.00
2018-07-30T16:38:05.679Z,4408.00
2018-07-30T16:39:58.636Z,4136.00
2018-07-30T16:40:58.653Z,4028.00
2018-07-30T16:42:51.672Z,3960.00
2018-07-30T16:43:51.708Z,3896.00
2018-07-30T16:45:46.269Z,3660.00
2018-07-30T16:46:46.354Z,3552.00
2018-07-30T16:48:39.301Z,3624.00
2018-07-30T16:49:39.364Z,3668.00
2018-07-30T16:51:35.981Z,3672.00
2018-07-30T16:52:35.934Z,3828.00
2018-07-30T16:54:29.428Z,4144.00
2018-07-30T16:55:29.442Z,4428.00
2018-07-30T16:57:22.465Z,5108.00
2018-07-30T16:58:22.496Z,5408.00
2018-07-30T17:00:15.535Z,5692.00
2018-07-30T17:01:15.551Z,5848.00
2018-07-30T17:03:08.574Z,5988.00
2018-07-30T17:04:08.610Z,5996.00
2018-07-30T17:06:02.161Z,5896.00
2018-07-30T17:07:02.175Z,5676.00
2018-07-30T17:08:56.119Z,5684.00
2018-07-30T17:09:56.155Z,5564.00
2018-07-30T17:11:49.249Z,5168.00
2018-07-30T17:12:49.214Z,5028.00
2018-07-30T17:14:42.265Z,4928.00
2018-07-30T17:15:42.267Z,4936.00
2018-07-30T17:17:35.290Z,5016.00
2018-07-30T17:18:35.324Z,5004.00
2018-07-30T17:20:28.875Z,4968.00
2018-07-30T17:21:28.893Z,4960.00
2018-07-30T17:23:21.911Z,4792.00
2018-07-30T17:24:21.948Z,4684.00
2018-07-30T17:26:15.500Z,4476.00
2018-07-30T17:27:15.515Z,4488.00
2018-07-30T17:29:08.536Z,4512.00
2018-07-30T17:30:08.639Z,4560.00
2018-07-30T17:32:01.615Z,4632.00
2018-07-30T17:33:01.634Z,4688.00
2018-07-30T17:34:55.165Z,4824.00
2018-07-30T17:35:55.197Z,4828.00
2018-07-30T17:37:49.669Z,4800.00
2018-07-30T17:38:49.693Z,4724.00
2018-07-30T17:40:43.241Z,4500.00